sensor_id;sensor_type;location;lat;lon;timestamp;temperature;humidity
79016;DHT22;72726;44.842;37.556;2024-03-08T00:00:35;2.81;85.90
79016;DHT22;72726;44.842;37.556;2024-03-08T00:01:38;2.81;85.81
79016;DHT22;72726;44.842;37.556;2024-03-08T00:02:41;2.83;85.68
79016;DHT22;72726;44.842;37.556;2024-03-08T00:03:42;2.81;85.64
79016;DHT22;72726;44.842;37.556;2024-03-08T00:04:43;2.83;85.74
79016;DHT22;72726;44.842;37.556;2024-03-08T00:05:45;2.77;85.81
79016;DHT22;72726;44.842;37.556;2024-03-08T00:06:47;2.77;85.93
79016;DHT22;72726;44.842;37.556;2024-03-08T00:07:48;2.77;85.99
79016;DHT22;72726;44.842;37.556;2024-03-08T00:08:50;2.77;86.08
79016;DHT22;72726;44.842;37.556;2024-03-08T00:09:52;2.75;86.19
79016;DHT22;72726;44.842;37.556;2024-03-08T00:10:53;2.76;86.18
79016;DHT22;72726;44.842;37.556;2024-03-08T00:11:55;2.76;86.21
79016;DHT22;72726;44.842;37.556;2024-03-08T00:12:56;2.73;86.16
79016;DHT22;72726;44.842;37.556;2024-03-08T00:13:58;2.73;86.20
79016;DHT22;72726;44.842;37.556;2024-03-08T00:15:00;2.75;86.38
79016;DHT22;72726;44.842;37.556;2024-03-08T00:16:01;2.73;86.35
79016;DHT22;72726;44.842;37.556;2024-03-08T00:17:03;2.73;86.29
79016;DHT22;72726;44.842;37.556;2024-03-08T00:18:04;2.72;86.34
79016;DHT22;72726;44.842;37.556;2024-03-08T00:19:06;2.72;86.48
79016;DHT22;72726;44.842;37.556;2024-03-08T00:20:07;2.69;86.43
79016;DHT22;72726;44.842;37.556;2024-03-08T00:21:12;2.69;86.56
79016;DHT22;72726;44.842;37.556;2024-03-08T00:22:13;2.69;86.62
79016;DHT22;72726;44.842;37.556;2024-03-08T00:23:14;2.66;86.68
79016;DHT22;72726;44.842;37.556;2024-03-08T00:24:16;2.66;86.84
79016;DHT22;72726;44.842;37.556;2024-03-08T00:25:18;2.63;86.90
79016;DHT22;72726;44.842;37.556;2024-03-08T00:26:19;2.66;86.87
79016;DHT22;72726;44.842;37.556;2024-03-08T00:27:21;2.67;86.94
79016;DHT22;72726;44.842;37.556;2024-03-08T00:28:22;2.67;86.97
79016;DHT22;72726;44.842;37.556;2024-03-08T00:29:26;2.67;86.88
79016;DHT22;72726;44.842;37.556;2024-03-08T00:30:28;2.67;86.82
79016;DHT22;72726;44.842;37.556;2024-03-08T00:31:30;2.66;86.83
79016;DHT22;72726;44.842;37.556;2024-03-08T00:32:34;2.64;86.95
79016;DHT22;72726;44.842;37.556;2024-03-08T00:33:37;2.61;86.94
79016;DHT22;72726;44.842;37.556;2024-03-08T00:34:38;2.63;86.89
79016;DHT22;72726;44.842;37.556;2024-03-08T00:35:39;2.63;86.97
79016;DHT22;72726;44.842;37.556;2024-03-08T00:36:40;2.61;87.09
79016;DHT22;72726;44.842;37.556;2024-03-08T00:37:42;2.63;87.08
79016;DHT22;72726;44.842;37.556;2024-03-08T00:38:43;2.60;87.14
79016;DHT22;72726;44.842;37.556;2024-03-08T00:39:44;2.64;87.19
79016;DHT22;72726;44.842;37.556;2024-03-08T00:40:45;2.61;87.14
79016;DHT22;72726;44.842;37.556;2024-03-08T00:41:47;2.57;87.10
79016;DHT22;72726;44.842;37.556;2024-03-08T00:42:48;2.60;87.16
79016;DHT22;72726;44.842;37.556;2024-03-08T00:43:49;2.59;87.12
79016;DHT22;72726;44.842;37.556;2024-03-08T00:44:51;2.57;87.16
79016;DHT22;72726;44.842;37.556;2024-03-08T00:45:52;2.57;87.21
79016;DHT22;72726;44.842;37.556;2024-03-08T00:46:53;2.57;87.28
79016;DHT22;72726;44.842;37.556;2024-03-08T00:47:54;2.59;87.14
79016;DHT22;72726;44.842;37.556;2024-03-08T00:48:56;2.56;87.06
79016;DHT22;72726;44.842;37.556;2024-03-08T00:49:57;2.59;87.15
79016;DHT22;72726;44.842;37.556;2024-03-08T00:50:58;2.57;87.06
79016;DHT22;72726;44.842;37.556;2024-03-08T00:52:00;2.57;87.17
79016;DHT22;72726;44.842;37.556;2024-03-08T00:53:01;2.57;87.11
79016;DHT22;72726;44.842;37.556;2024-03-08T00:54:02;2.54;87.27
79016;DHT22;72726;44.842;37.556;2024-03-08T00:55:04;2.57;87.39
79016;DHT22;72726;44.842;37.556;2024-03-08T00:56:05;2.56;87.57
79016;DHT22;72726;44.842;37.556;2024-03-08T00:57:07;2.59;87.72
79016;DHT22;72726;44.842;37.556;2024-03-08T00:58:08;2.59;87.61
79016;DHT22;72726;44.842;37.556;2024-03-08T00:59:10;2.54;87.54
79016;DHT22;72726;44.842;37.556;2024-03-08T01:00:11;2.54;87.62
79016;DHT22;72726;44.842;37.556;2024-03-08T01:01:13;2.56;87.65
79016;DHT22;72726;44.842;37.556;2024-03-08T01:02:18;2.56;87.65
79016;DHT22;72726;44.842;37.556;2024-03-08T01:03:20;2.54;87.65
79016;DHT22;72726;44.842;37.556;2024-03-08T01:04:21;2.54;87.56
79016;DHT22;72726;44.842;37.556;2024-03-08T01:05:24;2.57;87.61
79016;DHT22;72726;44.842;37.556;2024-03-08T01:06:25;2.57;87.66
79016;DHT22;72726;44.842;37.556;2024-03-08T01:07:28;2.57;87.59
79016;DHT22;72726;44.842;37.556;2024-03-08T01:08:29;2.54;87.61
79016;DHT22;72726;44.842;37.556;2024-03-08T01:09:30;2.57;87.68
79016;DHT22;72726;44.842;37.556;2024-03-08T01:10:31;2.56;87.59
79016;DHT22;72726;44.842;37.556;2024-03-08T01:11:33;2.59;87.60
79016;DHT22;72726;44.842;37.556;2024-03-08T01:12:35;2.59;87.71
79016;DHT22;72726;44.842;37.556;2024-03-08T01:13:36;2.59;87.70
79016;DHT22;72726;44.842;37.556;2024-03-08T01:14:38;2.57;87.69
79016;DHT22;72726;44.842;37.556;2024-03-08T01:15:39;2.53;87.61
79016;DHT22;72726;44.842;37.556;2024-03-08T01:16:42;2.53;87.79
79016;DHT22;72726;44.842;37.556;2024-03-08T01:17:43;2.50;87.84
79016;DHT22;72726;44.842;37.556;2024-03-08T01:18:45;2.52;87.77
79016;DHT22;72726;44.842;37.556;2024-03-08T01:19:47;2.48;87.77
79016;DHT22;72726;44.842;37.556;2024-03-08T01:20:48;2.50;87.93
79016;DHT22;72726;44.842;37.556;2024-03-08T01:21:50;2.50;88.01
79016;DHT22;72726;44.842;37.556;2024-03-08T01:22:51;2.50;88.01
79016;DHT22;72726;44.842;37.556;2024-03-08T01:23:52;2.49;87.88
79016;DHT22;72726;44.842;37.556;2024-03-08T01:24:54;2.46;87.90
79016;DHT22;72726;44.842;37.556;2024-03-08T01:25:55;2.43;88.02
79016;DHT22;72726;44.842;37.556;2024-03-08T01:26:59;2.48;88.18
79016;DHT22;72726;44.842;37.556;2024-03-08T01:28:00;2.45;88.20
79016;DHT22;72726;44.842;37.556;2024-03-08T01:29:02;2.46;88.21
79016;DHT22;72726;44.842;37.556;2024-03-08T01:30:06;2.45;88.23
79016;DHT22;72726;44.842;37.556;2024-03-08T01:31:07;2.43;88.31
79016;DHT22;72726;44.842;37.556;2024-03-08T01:32:09;2.45;88.26
79016;DHT22;72726;44.842;37.556;2024-03-08T01:33:12;2.45;88.32
79016;DHT22;72726;44.842;37.556;2024-03-08T01:34:13;2.43;88.26
79016;DHT22;72726;44.842;37.556;2024-03-08T01:35:14;2.43;88.21
79016;DHT22;72726;44.842;37.556;2024-03-08T01:36:16;2.45;88.20
79016;DHT22;72726;44.842;37.556;2024-03-08T01:37:17;2.42;88.16
79016;DHT22;72726;44.842;37.556;2024-03-08T01:38:19;2.42;88.15
79016;DHT22;72726;44.842;37.556;2024-03-08T01:39:22;2.40;88.24
79016;DHT22;72726;44.842;37.556;2024-03-08T01:40:23;2.40;88.25
79016;DHT22;72726;44.842;37.556;2024-03-08T01:41:24;2.39;88.28
79016;DHT22;72726;44.842;37.556;2024-03-08T01:42:26;2.39;88.31
79016;DHT22;72726;44.842;37.556;2024-03-08T01:43:28;2.35;88.29
79016;DHT22;72726;44.842;37.556;2024-03-08T01:44:29;2.38;88.36
79016;DHT22;72726;44.842;37.556;2024-03-08T01:45:31;2.38;88.42
79016;DHT22;72726;44.842;37.556;2024-03-08T01:46:35;2.38;88.43
79016;DHT22;72726;44.842;37.556;2024-03-08T01:47:37;2.35;88.51
79016;DHT22;72726;44.842;37.556;2024-03-08T01:48:39;2.33;88.59
79016;DHT22;72726;44.842;37.556;2024-03-08T01:49:42;2.38;88.58
79016;DHT22;72726;44.842;37.556;2024-03-08T01:50:44;2.35;88.57
79016;DHT22;72726;44.842;37.556;2024-03-08T01:51:47;2.38;88.51
79016;DHT22;72726;44.842;37.556;2024-03-08T01:52:49;2.38;88.36
79016;DHT22;72726;44.842;37.556;2024-03-08T01:53:50;2.36;88.38
79016;DHT22;72726;44.842;37.556;2024-03-08T01:54:52;2.38;88.36
79016;DHT22;72726;44.842;37.556;2024-03-08T01:55:57;2.36;88.26
79016;DHT22;72726;44.842;37.556;2024-03-08T01:56:59;2.36;88.25
79016;DHT22;72726;44.842;37.556;2024-03-08T01:58:00;2.38;88.20
79016;DHT22;72726;44.842;37.556;2024-03-08T01:59:02;2.35;88.27
79016;DHT22;72726;44.842;37.556;2024-03-08T02:00:04;2.38;88.27
79016;DHT22;72726;44.842;37.556;2024-03-08T02:01:07;2.35;88.39
79016;DHT22;72726;44.842;37.556;2024-03-08T02:02:09;2.36;88.44
79016;DHT22;72726;44.842;37.556;2024-03-08T02:03:12;2.35;88.38
79016;DHT22;72726;44.842;37.556;2024-03-08T02:04:13;2.33;88.37
79016;DHT22;72726;44.842;37.556;2024-03-08T02:05:15;2.32;88.38
79016;DHT22;72726;44.842;37.556;2024-03-08T02:06:16;2.31;88.43
79016;DHT22;72726;44.842;37.556;2024-03-08T02:07:18;2.29;88.56
79016;DHT22;72726;44.842;37.556;2024-03-08T02:08:19;2.31;88.60
79016;DHT22;72726;44.842;37.556;2024-03-08T02:09:24;2.31;88.58
79016;DHT22;72726;44.842;37.556;2024-03-08T02:10:25;2.32;88.60
79016;DHT22;72726;44.842;37.556;2024-03-08T02:11:27;2.32;88.59
79016;DHT22;72726;44.842;37.556;2024-03-08T02:12:28;2.32;88.55
79016;DHT22;72726;44.842;37.556;2024-03-08T02:13:29;2.33;88.54
79016;DHT22;72726;44.842;37.556;2024-03-08T02:14:31;2.36;88.62
79016;DHT22;72726;44.842;37.556;2024-03-08T02:15:55;2.39;88.72
79016;DHT22;72726;44.842;37.556;2024-03-08T02:17:01;2.39;88.55
79016;DHT22;72726;44.842;37.556;2024-03-08T02:18:03;2.36;88.55
79016;DHT22;72726;44.842;37.556;2024-03-08T02:19:04;2.38;88.61
79016;DHT22;72726;44.842;37.556;2024-03-08T02:20:08;2.36;88.64
79016;DHT22;72726;44.842;37.556;2024-03-08T02:21:10;2.38;88.65
79016;DHT22;72726;44.842;37.556;2024-03-08T02:22:11;2.40;88.71
79016;DHT22;72726;44.842;37.556;2024-03-08T02:23:14;2.35;88.56
79016;DHT22;72726;44.842;37.556;2024-03-08T02:24:15;2.36;88.71
79016;DHT22;72726;44.842;37.556;2024-03-08T02:25:17;2.36;88.89
79016;DHT22;72726;44.842;37.556;2024-03-08T02:26:19;2.39;88.96
79016;DHT22;72726;44.842;37.556;2024-03-08T02:27:26;2.39;88.89
79016;DHT22;72726;44.842;37.556;2024-03-08T02:28:28;2.38;88.89
79016;DHT22;72726;44.842;37.556;2024-03-08T02:29:31;2.38;88.92
79016;DHT22;72726;44.842;37.556;2024-03-08T02:30:32;2.32;88.76
79016;DHT22;72726;44.842;37.556;2024-03-08T02:31:35;2.33;88.76
79016;DHT22;72726;44.842;37.556;2024-03-08T02:32:36;2.32;89.01
79016;DHT22;72726;44.842;37.556;2024-03-08T02:33:37;2.32;88.97
79016;DHT22;72726;44.842;37.556;2024-03-08T02:34:39;2.31;89.06
79016;DHT22;72726;44.842;37.556;2024-03-08T02:35:40;2.32;89.09
79016;DHT22;72726;44.842;37.556;2024-03-08T02:36:42;2.31;89.23
79016;DHT22;72726;44.842;37.556;2024-03-08T02:37:43;2.32;89.16
79016;DHT22;72726;44.842;37.556;2024-03-08T02:38:45;2.29;89.17
79016;DHT22;72726;44.842;37.556;2024-03-08T02:39:46;2.32;89.12
79016;DHT22;72726;44.842;37.556;2024-03-08T02:40:49;2.31;89.22
79016;DHT22;72726;44.842;37.556;2024-03-08T02:41:51;2.32;89.27
79016;DHT22;72726;44.842;37.556;2024-03-08T02:42:52;2.33;89.30
79016;DHT22;72726;44.842;37.556;2024-03-08T02:43:54;2.31;89.28
79016;DHT22;72726;44.842;37.556;2024-03-08T02:44:56;2.32;89.31
79016;DHT22;72726;44.842;37.556;2024-03-08T02:45:57;2.33;89.36
79016;DHT22;72726;44.842;37.556;2024-03-08T02:46:59;2.33;89.35
79016;DHT22;72726;44.842;37.556;2024-03-08T02:48:00;2.33;89.42
79016;DHT22;72726;44.842;37.556;2024-03-08T02:49:02;2.35;89.22
79016;DHT22;72726;44.842;37.556;2024-03-08T02:50:03;2.35;89.22
79016;DHT22;72726;44.842;37.556;2024-03-08T02:51:05;2.35;89.30
79016;DHT22;72726;44.842;37.556;2024-03-08T02:52:06;2.36;89.35
79016;DHT22;72726;44.842;37.556;2024-03-08T02:53:08;2.39;89.30
79016;DHT22;72726;44.842;37.556;2024-03-08T02:54:10;2.36;89.22
79016;DHT22;72726;44.842;37.556;2024-03-08T02:55:12;2.38;89.16
79016;DHT22;72726;44.842;37.556;2024-03-08T02:56:16;2.38;89.14
79016;DHT22;72726;44.842;37.556;2024-03-08T02:57:18;2.42;89.15
79016;DHT22;72726;44.842;37.556;2024-03-08T02:58:19;2.42;88.98
79016;DHT22;72726;44.842;37.556;2024-03-08T02:59:20;2.42;88.95
79016;DHT22;72726;44.842;37.556;2024-03-08T03:00:23;2.42;88.94
79016;DHT22;72726;44.842;37.556;2024-03-08T03:01:25;2.45;88.89
79016;DHT22;72726;44.842;37.556;2024-03-08T03:02:27;2.46;88.85
79016;DHT22;72726;44.842;37.556;2024-03-08T03:03:28;2.45;88.82
79016;DHT22;72726;44.842;37.556;2024-03-08T03:04:29;2.45;88.73
79016;DHT22;72726;44.842;37.556;2024-03-08T03:05:31;2.46;88.75
79016;DHT22;72726;44.842;37.556;2024-03-08T03:06:32;2.45;88.72
79016;DHT22;72726;44.842;37.556;2024-03-08T03:07:38;2.45;88.48
79016;DHT22;72726;44.842;37.556;2024-03-08T03:08:39;2.46;88.59
79016;DHT22;72726;44.842;37.556;2024-03-08T03:09:45;2.46;88.56
79016;DHT22;72726;44.842;37.556;2024-03-08T03:10:46;2.48;88.60
79016;DHT22;72726;44.842;37.556;2024-03-08T03:11:47;2.49;88.46
79016;DHT22;72726;44.842;37.556;2024-03-08T03:12:48;2.45;88.55
79016;DHT22;72726;44.842;37.556;2024-03-08T03:13:50;2.48;88.67
79016;DHT22;72726;44.842;37.556;2024-03-08T03:14:51;2.48;88.68
79016;DHT22;72726;44.842;37.556;2024-03-08T03:15:53;2.49;88.70
79016;DHT22;72726;44.842;37.556;2024-03-08T03:16:54;2.50;88.63
79016;DHT22;72726;44.842;37.556;2024-03-08T03:17:56;2.52;88.63
79016;DHT22;72726;44.842;37.556;2024-03-08T03:18:57;2.54;88.55
79016;DHT22;72726;44.842;37.556;2024-03-08T03:20:00;2.52;88.48
79016;DHT22;72726;44.842;37.556;2024-03-08T03:21:06;2.56;88.39
79016;DHT22;72726;44.842;37.556;2024-03-08T03:22:08;2.54;88.26
79016;DHT22;72726;44.842;37.556;2024-03-08T03:23:11;2.52;88.12
79016;DHT22;72726;44.842;37.556;2024-03-08T03:24:15;2.49;88.10
79016;DHT22;72726;44.842;37.556;2024-03-08T03:25:20;2.50;88.10
79016;DHT22;72726;44.842;37.556;2024-03-08T03:26:30;2.52;88.06
79016;DHT22;72726;44.842;37.556;2024-03-08T03:27:32;2.50;87.95
79016;DHT22;72726;44.842;37.556;2024-03-08T03:28:34;2.52;87.99
79016;DHT22;72726;44.842;37.556;2024-03-08T03:29:35;2.54;87.99
79016;DHT22;72726;44.842;37.556;2024-03-08T03:30:36;2.52;87.57
79016;DHT22;72726;44.842;37.556;2024-03-08T03:31:38;2.48;87.58
79016;DHT22;72726;44.842;37.556;2024-03-08T03:32:41;2.48;87.68
79016;DHT22;72726;44.842;37.556;2024-03-08T03:33:47;2.49;87.74
79016;DHT22;72726;44.842;37.556;2024-03-08T03:34:49;2.46;87.77
79016;DHT22;72726;44.842;37.556;2024-03-08T03:35:53;2.48;87.68
79016;DHT22;72726;44.842;37.556;2024-03-08T03:36:55;2.48;87.69
79016;DHT22;72726;44.842;37.556;2024-03-08T03:37:56;2.46;87.68
79016;DHT22;72726;44.842;37.556;2024-03-08T03:39:08;2.45;87.64
79016;DHT22;72726;44.842;37.556;2024-03-08T03:40:17;2.48;87.55
79016;DHT22;72726;44.842;37.556;2024-03-08T03:41:20;2.48;87.43
79016;DHT22;72726;44.842;37.556;2024-03-08T03:42:22;2.49;87.50
79016;DHT22;72726;44.842;37.556;2024-03-08T03:43:24;2.46;87.54
79016;DHT22;72726;44.842;37.556;2024-03-08T03:44:26;2.48;87.26
79016;DHT22;72726;44.842;37.556;2024-03-08T03:45:29;2.45;87.07
79016;DHT22;72726;44.842;37.556;2024-03-08T03:46:30;2.43;87.13
79016;DHT22;72726;44.842;37.556;2024-03-08T03:47:32;2.42;87.08
79016;DHT22;72726;44.842;37.556;2024-03-08T03:48:33;2.42;87.21
79016;DHT22;72726;44.842;37.556;2024-03-08T03:49:34;2.42;87.29
79016;DHT22;72726;44.842;37.556;2024-03-08T03:50:36;2.43;87.17
79016;DHT22;72726;44.842;37.556;2024-03-08T03:51:37;2.40;87.23
79016;DHT22;72726;44.842;37.556;2024-03-08T03:52:39;2.42;87.20
79016;DHT22;72726;44.842;37.556;2024-03-08T03:53:40;2.40;87.06
79016;DHT22;72726;44.842;37.556;2024-03-08T03:54:41;2.39;87.19
79016;DHT22;72726;44.842;37.556;2024-03-08T03:55:43;2.38;87.19
79016;DHT22;72726;44.842;37.556;2024-03-08T03:56:44;2.40;87.21
79016;DHT22;72726;44.842;37.556;2024-03-08T03:57:47;2.36;87.20
79016;DHT22;72726;44.842;37.556;2024-03-08T03:58:48;2.38;87.19
79016;DHT22;72726;44.842;37.556;2024-03-08T03:59:54;2.39;87.16
79016;DHT22;72726;44.842;37.556;2024-03-08T04:00:55;2.36;87.04
79016;DHT22;72726;44.842;37.556;2024-03-08T04:01:57;2.35;86.97
79016;DHT22;72726;44.842;37.556;2024-03-08T04:02:58;2.35;87.02
79016;DHT22;72726;44.842;37.556;2024-03-08T04:04:01;2.31;87.01
79016;DHT22;72726;44.842;37.556;2024-03-08T04:05:04;2.35;86.92
79016;DHT22;72726;44.842;37.556;2024-03-08T04:06:06;2.31;86.78
79016;DHT22;72726;44.842;37.556;2024-03-08T04:07:07;2.29;86.91
79016;DHT22;72726;44.842;37.556;2024-03-08T04:08:08;2.31;86.91
79016;DHT22;72726;44.842;37.556;2024-03-08T04:09:10;2.31;87.02
79016;DHT22;72726;44.842;37.556;2024-03-08T04:10:12;2.29;87.10
79016;DHT22;72726;44.842;37.556;2024-03-08T04:11:13;2.32;87.03
79016;DHT22;72726;44.842;37.556;2024-03-08T04:12:17;2.28;86.87
79016;DHT22;72726;44.842;37.556;2024-03-08T04:13:18;2.29;86.96
79016;DHT22;72726;44.842;37.556;2024-03-08T04:14:22;2.29;86.85
79016;DHT22;72726;44.842;37.556;2024-03-08T04:15:24;2.28;86.95
79016;DHT22;72726;44.842;37.556;2024-03-08T04:16:25;2.28;87.07
79016;DHT22;72726;44.842;37.556;2024-03-08T04:17:26;2.29;86.96
79016;DHT22;72726;44.842;37.556;2024-03-08T04:18:28;2.25;86.99
79016;DHT22;72726;44.842;37.556;2024-03-08T04:19:29;2.26;86.91
79016;DHT22;72726;44.842;37.556;2024-03-08T04:20:33;2.24;86.72
79016;DHT22;72726;44.842;37.556;2024-03-08T04:21:34;2.21;86.86
79016;DHT22;72726;44.842;37.556;2024-03-08T04:22:36;2.21;87.04
79016;DHT22;72726;44.842;37.556;2024-03-08T04:23:37;2.21;87.03
79016;DHT22;72726;44.842;37.556;2024-03-08T04:24:39;2.17;87.16
79016;DHT22;72726;44.842;37.556;2024-03-08T04:25:41;2.15;87.10
79016;DHT22;72726;44.842;37.556;2024-03-08T04:26:43;2.14;87.21
79016;DHT22;72726;44.842;37.556;2024-03-08T04:27:44;2.15;87.30
79016;DHT22;72726;44.842;37.556;2024-03-08T04:28:45;2.12;87.35
79016;DHT22;72726;44.842;37.556;2024-03-08T04:29:47;2.12;87.36
79016;DHT22;72726;44.842;37.556;2024-03-08T04:30:48;2.12;87.21
79016;DHT22;72726;44.842;37.556;2024-03-08T04:31:51;2.07;87.25
79016;DHT22;72726;44.842;37.556;2024-03-08T04:32:55;2.08;87.42
79016;DHT22;72726;44.842;37.556;2024-03-08T04:33:56;2.07;87.49
79016;DHT22;72726;44.842;37.556;2024-03-08T04:34:58;2.04;87.60
79016;DHT22;72726;44.842;37.556;2024-03-08T04:35:59;2.07;87.62
79016;DHT22;72726;44.842;37.556;2024-03-08T04:37:01;2.05;87.56
79016;DHT22;72726;44.842;37.556;2024-03-08T04:38:03;2.07;87.47
79016;DHT22;72726;44.842;37.556;2024-03-08T04:39:06;2.08;87.56
79016;DHT22;72726;44.842;37.556;2024-03-08T04:40:11;2.08;87.37
79016;DHT22;72726;44.842;37.556;2024-03-08T04:41:12;2.07;87.40
79016;DHT22;72726;44.842;37.556;2024-03-08T04:42:14;2.08;87.41
79016;DHT22;72726;44.842;37.556;2024-03-08T04:43:15;2.07;87.46
79016;DHT22;72726;44.842;37.556;2024-03-08T04:44:19;2.10;87.46
79016;DHT22;72726;44.842;37.556;2024-03-08T04:45:20;2.10;87.45
79016;DHT22;72726;44.842;37.556;2024-03-08T04:46:22;2.10;87.35
79016;DHT22;72726;44.842;37.556;2024-03-08T04:47:24;2.11;87.19
79016;DHT22;72726;44.842;37.556;2024-03-08T04:48:25;2.10;87.24
79016;DHT22;72726;44.842;37.556;2024-03-08T04:49:30;2.10;87.20
79016;DHT22;72726;44.842;37.556;2024-03-08T04:50:31;2.10;87.25
79016;DHT22;72726;44.842;37.556;2024-03-08T04:51:33;2.10;87.09
79016;DHT22;72726;44.842;37.556;2024-03-08T04:52:35;2.10;86.92
79016;DHT22;72726;44.842;37.556;2024-03-08T04:53:36;2.08;86.90
79016;DHT22;72726;44.842;37.556;2024-03-08T04:54:38;2.05;86.91
79016;DHT22;72726;44.842;37.556;2024-03-08T04:55:39;2.04;87.03
79016;DHT22;72726;44.842;37.556;2024-03-08T04:56:40;2.04;87.15
79016;DHT22;72726;44.842;37.556;2024-03-08T04:57:42;2.05;87.07
79016;DHT22;72726;44.842;37.556;2024-03-08T04:58:45;2.05;87.22
79016;DHT22;72726;44.842;37.556;2024-03-08T04:59:49;2.08;87.33
79016;DHT22;72726;44.842;37.556;2024-03-08T05:00:51;2.12;87.30
79016;DHT22;72726;44.842;37.556;2024-03-08T05:01:52;2.10;87.15
79016;DHT22;72726;44.842;37.556;2024-03-08T05:02:53;2.11;87.16
79016;DHT22;72726;44.842;37.556;2024-03-08T05:03:55;2.12;87.08
79016;DHT22;72726;44.842;37.556;2024-03-08T05:04:56;2.14;87.05
79016;DHT22;72726;44.842;37.556;2024-03-08T05:05:57;2.11;87.12
79016;DHT22;72726;44.842;37.556;2024-03-08T05:06:59;2.12;86.96
79016;DHT22;72726;44.842;37.556;2024-03-08T05:08:02;2.14;87.04
79016;DHT22;72726;44.842;37.556;2024-03-08T05:09:04;2.17;87.03
79016;DHT22;72726;44.842;37.556;2024-03-08T05:10:14;2.12;87.03
79016;DHT22;72726;44.842;37.556;2024-03-08T05:11:19;2.15;87.05
79016;DHT22;72726;44.842;37.556;2024-03-08T05:12:21;2.18;87.15
79016;DHT22;72726;44.842;37.556;2024-03-08T05:13:23;2.18;87.16
79016;DHT22;72726;44.842;37.556;2024-03-08T05:14:24;2.20;87.16
79016;DHT22;72726;44.842;37.556;2024-03-08T05:15:26;2.22;87.24
79016;DHT22;72726;44.842;37.556;2024-03-08T05:16:27;2.21;87.08
79016;DHT22;72726;44.842;37.556;2024-03-08T05:17:29;2.22;87.05
79016;DHT22;72726;44.842;37.556;2024-03-08T05:18:31;2.24;87.08
79016;DHT22;72726;44.842;37.556;2024-03-08T05:19:33;2.24;87.13
79016;DHT22;72726;44.842;37.556;2024-03-08T05:20:34;2.22;87.20
79016;DHT22;72726;44.842;37.556;2024-03-08T05:21:38;2.25;87.16
79016;DHT22;72726;44.842;37.556;2024-03-08T05:22:40;2.26;87.01
79016;DHT22;72726;44.842;37.556;2024-03-08T05:23:41;2.24;87.03
79016;DHT22;72726;44.842;37.556;2024-03-08T05:24:42;2.28;87.04
79016;DHT22;72726;44.842;37.556;2024-03-08T05:25:44;2.22;86.79
79016;DHT22;72726;44.842;37.556;2024-03-08T05:26:46;2.28;87.12
79016;DHT22;72726;44.842;37.556;2024-03-08T05:27:48;2.28;87.11
79016;DHT22;72726;44.842;37.556;2024-03-08T05:28:49;2.29;87.17
79016;DHT22;72726;44.842;37.556;2024-03-08T05:29:51;2.33;87.24
79016;DHT22;72726;44.842;37.556;2024-03-08T05:30:52;2.33;87.18
79016;DHT22;72726;44.842;37.556;2024-03-08T05:31:54;2.35;87.17
79016;DHT22;72726;44.842;37.556;2024-03-08T05:32:55;2.38;86.88
79016;DHT22;72726;44.842;37.556;2024-03-08T05:33:57;2.38;86.70
79016;DHT22;72726;44.842;37.556;2024-03-08T05:34:59;2.38;86.48
79016;DHT22;72726;44.842;37.556;2024-03-08T05:36:00;2.39;86.45
79016;DHT22;72726;44.842;37.556;2024-03-08T05:37:03;2.48;86.58
79016;DHT22;72726;44.842;37.556;2024-03-08T05:38:04;2.46;86.52
79016;DHT22;72726;44.842;37.556;2024-03-08T05:39:06;2.49;86.48
79016;DHT22;72726;44.842;37.556;2024-03-08T05:40:10;2.52;86.25
79016;DHT22;72726;44.842;37.556;2024-03-08T05:41:12;2.50;86.13
79016;DHT22;72726;44.842;37.556;2024-03-08T05:42:16;2.52;86.13
79016;DHT22;72726;44.842;37.556;2024-03-08T05:43:17;2.57;86.19
79016;DHT22;72726;44.842;37.556;2024-03-08T05:44:21;2.57;86.31
79016;DHT22;72726;44.842;37.556;2024-03-08T05:45:23;2.60;86.15
79016;DHT22;72726;44.842;37.556;2024-03-08T05:46:26;2.61;86.12
79016;DHT22;72726;44.842;37.556;2024-03-08T05:47:27;2.67;86.22
79016;DHT22;72726;44.842;37.556;2024-03-08T05:48:28;2.72;86.10
79016;DHT22;72726;44.842;37.556;2024-03-08T05:49:30;2.73;86.13
79016;DHT22;72726;44.842;37.556;2024-03-08T05:50:31;2.76;86.05
79016;DHT22;72726;44.842;37.556;2024-03-08T05:51:33;2.73;85.59
79016;DHT22;72726;44.842;37.556;2024-03-08T05:52:41;2.75;85.47
79016;DHT22;72726;44.842;37.556;2024-03-08T05:53:47;2.75;85.39
79016;DHT22;72726;44.842;37.556;2024-03-08T05:54:48;2.79;85.55
79016;DHT22;72726;44.842;37.556;2024-03-08T05:55:49;2.81;85.75
79016;DHT22;72726;44.842;37.556;2024-03-08T05:56:51;2.81;85.54
79016;DHT22;72726;44.842;37.556;2024-03-08T05:57:54;2.84;85.36
79016;DHT22;72726;44.842;37.556;2024-03-08T05:58:56;2.87;85.20
79016;DHT22;72726;44.842;37.556;2024-03-08T05:59:59;2.86;84.94
79016;DHT22;72726;44.842;37.556;2024-03-08T06:01:00;2.87;85.14
79016;DHT22;72726;44.842;37.556;2024-03-08T06:02:01;2.90;85.27
79016;DHT22;72726;44.842;37.556;2024-03-08T06:03:04;2.91;85.24
79016;DHT22;72726;44.842;37.556;2024-03-08T06:04:05;2.94;85.41
79016;DHT22;72726;44.842;37.556;2024-03-08T06:05:11;2.91;85.04
79016;DHT22;72726;44.842;37.556;2024-03-08T06:06:13;2.88;84.57
79016;DHT22;72726;44.842;37.556;2024-03-08T06:07:15;2.88;84.49
79016;DHT22;72726;44.842;37.556;2024-03-08T06:08:18;2.90;84.41
79016;DHT22;72726;44.842;37.556;2024-03-08T06:09:22;2.91;84.61
79016;DHT22;72726;44.842;37.556;2024-03-08T06:10:25;2.93;84.64
79016;DHT22;72726;44.842;37.556;2024-03-08T06:11:27;2.94;84.45
79016;DHT22;72726;44.842;37.556;2024-03-08T06:12:29;2.97;84.47
79016;DHT22;72726;44.842;37.556;2024-03-08T06:13:34;2.95;84.20
79016;DHT22;72726;44.842;37.556;2024-03-08T06:14:36;2.93;84.48
79016;DHT22;72726;44.842;37.556;2024-03-08T06:15:37;2.97;84.49
79016;DHT22;72726;44.842;37.556;2024-03-08T06:16:38;3.01;84.68
79016;DHT22;72726;44.842;37.556;2024-03-08T06:17:43;3.05;84.24
79016;DHT22;72726;44.842;37.556;2024-03-08T06:18:44;3.08;83.81
79016;DHT22;72726;44.842;37.556;2024-03-08T06:19:45;3.09;83.93
79016;DHT22;72726;44.842;37.556;2024-03-08T06:20:47;3.09;83.91
79016;DHT22;72726;44.842;37.556;2024-03-08T06:21:48;3.14;84.05
79016;DHT22;72726;44.842;37.556;2024-03-08T06:22:50;3.18;84.10
79016;DHT22;72726;44.842;37.556;2024-03-08T06:23:53;3.19;83.61
79016;DHT22;72726;44.842;37.556;2024-03-08T06:24:56;3.22;83.68
79016;DHT22;72726;44.842;37.556;2024-03-08T06:25:57;3.19;83.48
79016;DHT22;72726;44.842;37.556;2024-03-08T06:26:58;3.22;83.30
79016;DHT22;72726;44.842;37.556;2024-03-08T06:28:00;3.22;83.14
79016;DHT22;72726;44.842;37.556;2024-03-08T06:29:01;3.23;83.21
79016;DHT22;72726;44.842;37.556;2024-03-08T06:30:02;3.25;83.52
79016;DHT22;72726;44.842;37.556;2024-03-08T06:31:06;3.22;83.13
79016;DHT22;72726;44.842;37.556;2024-03-08T06:32:09;3.25;83.44